sensor_id;sensor_type;location;lat;lon;timestamp;pressure;altitude;pressure_sealevel;temperature;humidity
55916;BME280;41826;53.246;-6.670;2023-07-09T00:01:55;99005.59;;;16.10;100.00
55916;BME280;41826;53.246;-6.670;2023-07-09T00:04:21;98988.63;;;15.99;100.00
55916;BME280;41826;53.246;-6.670;2023-07-09T00:06:47;98995.47;;;16.07;100.00
55916;BME280;41826;53.246;-6.670;2023-07-09T00:09:15;98995.53;;;16.18;100.00
55916;BME280;41826;53.246;-6.670;2023-07-09T00:11:42;98989.13;;;15.89;100.00
55916;BME280;41826;53.246;-6.670;2023-07-09T00:14:09;98972.69;;;16.06;100.00
55916;BME280;41826;53.246;-6.670;2023-07-09T00:16:35;98959.56;;;15.92;100.00
55916;BME280;41826;53.246;-6.670;2023-07-09T00:19:03;98959.44;;;15.87;100.00
55916;BME280;41826;53.246;-6.670;2023-07-09T00:21:29;98940.25;;;15.92;100.00
55916;BME280;41826;53.246;-6.670;2023-07-09T00:24:00;98948.16;;;15.55;100.00
55916;BME280;41826;53.246;-6.670;2023-07-09T00:26:30;98948.19;;;15.73;100.00
55916;BME280;41826;53.246;-6.670;2023-07-09T00:28:56;98948.38;;;15.53;100.00
55916;BME280;41826;53.246;-6.670;2023-07-09T00:31:21;98958.78;;;15.48;100.00
55916;BME280;41826;53.246;-6.670;2023-07-09T00:33:48;98965.44;;;15.32;100.00
55916;BME280;41826;53.246;-6.670;2023-07-09T00:36:26;98958.16;;;15.53;100.00
55916;BME280;41826;53.246;-6.670;2023-07-09T00:38:52;98951.66;;;15.49;100.00
55916;BME280;41826;53.246;-6.670;2023-07-09T00:41:20;98948.22;;;15.48;100.00
55916;BME280;41826;53.246;-6.670;2023-07-09T00:43:47;98942.25;;;15.78;100.00
55916;BME280;41826;53.246;-6.670;2023-07-09T00:47:06;98950.19;;;15.78;100.00
55916;BME280;41826;53.246;-6.670;2023-07-09T00:49:04;98922.78;;;15.91;100.00
55916;BME280;41826;53.246;-6.670;2023-07-09T00:51:32;98948.72;;;15.57;100.00
55916;BME280;41826;53.246;-6.670;2023-07-09T00:54:03;98949.91;;;15.61;100.00
55916;BME280;41826;53.246;-6.670;2023-07-09T00:56:41;98975.41;;;15.55;100.00
55916;BME280;41826;53.246;-6.670;2023-07-09T00:59:15;98981.63;;;15.43;100.00
55916;BME280;41826;53.246;-6.670;2023-07-09T01:01:44;98984.28;;;15.43;100.00
55916;BME280;41826;53.246;-6.670;2023-07-09T01:04:12;98993.50;;;15.33;100.00
55916;BME280;41826;53.246;-6.670;2023-07-09T01:06:45;99002.84;;;15.36;100.00
55916;BME280;41826;53.246;-6.670;2023-07-09T01:09:12;99009.59;;;15.32;100.00
55916;BME280;41826;53.246;-6.670;2023-07-09T01:11:38;99024.63;;;15.31;100.00
55916;BME280;41826;53.246;-6.670;2023-07-09T01:14:06;99048.31;;;15.20;100.00
55916;BME280;41826;53.246;-6.670;2023-07-09T01:16:36;99068.00;;;14.92;100.00
55916;BME280;41826;53.246;-6.670;2023-07-09T01:19:03;99131.53;;;14.59;100.00
55916;BME280;41826;53.246;-6.670;2023-07-09T01:21:30;99179.28;;;14.57;100.00
55916;BME280;41826;53.246;-6.670;2023-07-09T01:23:56;99257.09;;;14.55;100.00
55916;BME280;41826;53.246;-6.670;2023-07-09T01:26:25;99290.38;;;14.36;100.00
55916;BME280;41826;53.246;-6.670;2023-07-09T01:28:52;99359.00;;;14.29;100.00
55916;BME280;41826;53.246;-6.670;2023-07-09T01:31:18;99455.34;;;14.05;100.00
55916;BME280;41826;53.246;-6.670;2023-07-09T01:33:46;99538.34;;;13.96;100.00
55916;BME280;41826;53.246;-6.670;2023-07-09T01:36:14;99616.78;;;14.08;100.00
55916;BME280;41826;53.246;-6.670;2023-07-09T01:38:41;99689.88;;;13.86;100.00
55916;BME280;41826;53.246;-6.670;2023-07-09T01:41:07;99751.00;;;13.90;100.00
55916;BME280;41826;53.246;-6.670;2023-07-09T01:43:34;99802.06;;;13.82;100.00
55916;BME280;41826;53.246;-6.670;2023-07-09T01:46:00;99885.03;;;13.65;100.00
55916;BME280;41826;53.246;-6.670;2023-07-09T01:48:27;99966.06;;;13.56;100.00
55916;BME280;41826;53.246;-6.670;2023-07-09T01:50:53;100033.84;;;13.71;100.00
55916;BME280;41826;53.246;-6.670;2023-07-09T01:53:23;100076.13;;;13.77;100.00
55916;BME280;41826;53.246;-6.670;2023-07-09T01:55:50;100091.94;;;13.62;100.00
55916;BME280;41826;53.246;-6.670;2023-07-09T01:58:16;100123.94;;;13.82;100.00
55916;BME280;41826;53.246;-6.670;2023-07-09T02:00:43;100128.88;;;14.00;100.00
55916;BME280;41826;53.246;-6.670;2023-07-09T02:03:10;100106.72;;;13.86;100.00
55916;BME280;41826;53.246;-6.670;2023-07-09T02:05:37;100079.34;;;14.02;100.00
55916;BME280;41826;53.246;-6.670;2023-07-09T02:08:03;100003.00;;;14.16;100.00
55916;BME280;41826;53.246;-6.670;2023-07-09T02:10:28;99967.50;;;14.03;100.00
55916;BME280;41826;53.246;-6.670;2023-07-09T02:12:54;99949.63;;;14.20;100.00
55916;BME280;41826;53.246;-6.670;2023-07-09T02:15:19;99866.09;;;14.13;100.00
55916;BME280;41826;53.246;-6.670;2023-07-09T02:17:45;99881.22;;;13.82;100.00
55916;BME280;41826;53.246;-6.670;2023-07-09T02:20:11;99885.06;;;14.01;100.00
55916;BME280;41826;53.246;-6.670;2023-07-09T02:22:37;99922.78;;;13.51;100.00
55916;BME280;41826;53.246;-6.670;2023-07-09T02:25:04;99961.16;;;13.53;100.00
55916;BME280;41826;53.246;-6.670;2023-07-09T02:27:31;99997.06;;;13.39;100.00
55916;BME280;41826;53.246;-6.670;2023-07-09T02:29:57;100003.69;;;13.35;100.00
55916;BME280;41826;53.246;-6.670;2023-07-09T02:32:26;100040.88;;;13.40;100.00
55916;BME280;41826;53.246;-6.670;2023-07-09T02:34:54;100082.00;;;13.27;100.00
55916;BME280;41826;53.246;-6.670;2023-07-09T02:37:22;100099.22;;;13.37;100.00
55916;BME280;41826;53.246;-6.670;2023-07-09T02:39:48;100104.88;;;13.34;100.00
55916;BME280;41826;53.246;-6.670;2023-07-09T02:42:16;100138.94;;;13.05;100.00
55916;BME280;41826;53.246;-6.670;2023-07-09T02:44:42;100232.75;;;13.14;100.00
55916;BME280;41826;53.246;-6.670;2023-07-09T02:47:09;100625.97;;;13.09;100.00
55916;BME280;41826;53.246;-6.670;2023-07-09T02:49:36;100644.34;;;13.27;100.00
55916;BME280;41826;53.246;-6.670;2023-07-09T02:52:02;100633.78;;;13.27;100.00
55916;BME280;41826;53.246;-6.670;2023-07-09T02:54:27;100628.19;;;13.38;100.00
55916;BME280;41826;53.246;-6.670;2023-07-09T02:56:53;100600.50;;;13.34;100.00
55916;BME280;41826;53.246;-6.670;2023-07-09T02:59:19;100584.84;;;13.41;100.00
55916;BME280;41826;53.246;-6.670;2023-07-09T03:01:45;100569.84;;;13.41;100.00
55916;BME280;41826;53.246;-6.670;2023-07-09T03:04:12;100557.97;;;13.46;100.00
55916;BME280;41826;53.246;-6.670;2023-07-09T03:06:37;100564.56;;;13.33;100.00
55916;BME280;41826;53.246;-6.670;2023-07-09T03:09:04;100562.75;;;13.34;100.00
55916;BME280;41826;53.246;-6.670;2023-07-09T03:11:30;100554.84;;;13.34;100.00
55916;BME280;41826;53.246;-6.670;2023-07-09T03:13:57;100573.94;;;13.19;100.00
55916;BME280;41826;53.246;-6.670;2023-07-09T03:16:26;100565.66;;;13.06;100.00
55916;BME280;41826;53.246;-6.670;2023-07-09T03:18:51;100591.19;;;13.06;100.00
55916;BME280;41826;53.246;-6.670;2023-07-09T03:21:17;100615.31;;;13.27;100.00
55916;BME280;41826;53.246;-6.670;2023-07-09T03:23:42;100618.56;;;13.13;100.00
55916;BME280;41826;53.246;-6.670;2023-07-09T03:26:08;100645.94;;;13.20;100.00
55916;BME280;41826;53.246;-6.670;2023-07-09T03:28:36;100659.91;;;13.12;100.00
55916;BME280;41826;53.246;-6.670;2023-07-09T03:31:01;100676.22;;;13.24;100.00
55916;BME280;41826;53.246;-6.670;2023-07-09T03:33:27;100530.94;;;13.43;100.00
55916;BME280;41826;53.246;-6.670;2023-07-09T03:35:53;100478.72;;;13.22;100.00
55916;BME280;41826;53.246;-6.670;2023-07-09T03:38:18;100542.47;;;13.18;100.00
55916;BME280;41826;53.246;-6.670;2023-07-09T03:40:44;100595.16;;;13.01;100.00
55916;BME280;41826;53.246;-6.670;2023-07-09T03:43:10;100638.16;;;13.10;100.00
55916;BME280;41826;53.246;-6.670;2023-07-09T03:45:37;100611.38;;;13.31;100.00
55916;BME280;41826;53.246;-6.670;2023-07-09T03:48:04;100584.34;;;13.37;100.00
55916;BME280;41826;53.246;-6.670;2023-07-09T03:50:30;100398.56;;;13.56;100.00
55916;BME280;41826;53.246;-6.670;2023-07-09T03:52:56;99988.63;;;13.88;100.00
55916;BME280;41826;53.246;-6.670;2023-07-09T03:55:21;99867.28;;;13.74;100.00
55916;BME280;41826;53.246;-6.670;2023-07-09T03:57:47;99642.50;;;13.78;100.00
55916;BME280;41826;53.246;-6.670;2023-07-09T04:00:13;99403.94;;;13.87;100.00
55916;BME280;41826;53.246;-6.670;2023-07-09T04:02:40;99304.91;;;13.85;100.00
55916;BME280;41826;53.246;-6.670;2023-07-09T04:05:06;99356.31;;;13.54;100.00
55916;BME280;41826;53.246;-6.670;2023-07-09T04:07:34;99547.75;;;13.27;100.00
55916;BME280;41826;53.246;-6.670;2023-07-09T04:10:00;99632.63;;;13.22;100.00
55916;BME280;41826;53.246;-6.670;2023-07-09T04:12:26;99757.06;;;12.88;100.00
55916;BME280;41826;53.246;-6.670;2023-07-09T04:14:51;99935.16;;;12.74;100.00
55916;BME280;41826;53.246;-6.670;2023-07-09T04:17:16;100036.44;;;12.64;100.00
55916;BME280;41826;53.246;-6.670;2023-07-09T04:19:42;100514.69;;;12.48;100.00
55916;BME280;41826;53.246;-6.670;2023-07-09T04:22:10;100561.19;;;12.74;100.00
55916;BME280;41826;53.246;-6.670;2023-07-09T04:24:36;100553.63;;;12.87;100.00
55916;BME280;41826;53.246;-6.670;2023-07-09T04:27:01;100533.19;;;12.81;100.00
55916;BME280;41826;53.246;-6.670;2023-07-09T04:29:29;100593.47;;;12.84;100.00
55916;BME280;41826;53.246;-6.670;2023-07-09T04:31:54;100580.16;;;13.02;100.00
55916;BME280;41826;53.246;-6.670;2023-07-09T04:34:20;100529.44;;;13.16;100.00
55916;BME280;41826;53.246;-6.670;2023-07-09T04:36:45;100541.47;;;12.94;100.00
55916;BME280;41826;53.246;-6.670;2023-07-09T04:39:10;100601.75;;;13.06;100.00
55916;BME280;41826;53.246;-6.670;2023-07-09T04:41:36;100569.00;;;13.25;100.00
55916;BME280;41826;53.246;-6.670;2023-07-09T04:44:01;100553.84;;;13.27;100.00
55916;BME280;41826;53.246;-6.670;2023-07-09T04:46:26;100567.16;;;13.09;100.00
55916;BME280;41826;53.246;-6.670;2023-07-09T04:48:52;100587.41;;;13.16;100.00
55916;BME280;41826;53.246;-6.670;2023-07-09T04:51:17;100597.47;;;13.13;100.00
55916;BME280;41826;53.246;-6.670;2023-07-09T04:53:43;100612.19;;;13.32;100.00
55916;BME280;41826;53.246;-6.670;2023-07-09T04:56:09;100581.38;;;13.40;100.00
55916;BME280;41826;53.246;-6.670;2023-07-09T04:58:35;100583.34;;;13.47;100.00
55916;BME280;41826;53.246;-6.670;2023-07-09T05:01:00;100541.00;;;13.56;100.00
55916;BME280;41826;53.246;-6.670;2023-07-09T05:03:26;100412.72;;;13.63;100.00
55916;BME280;41826;53.246;-6.670;2023-07-09T05:05:52;100452.06;;;13.81;100.00
55916;BME280;41826;53.246;-6.670;2023-07-09T05:08:17;100454.16;;;13.94;100.00
55916;BME280;41826;53.246;-6.670;2023-07-09T05:10:49;100418.63;;;14.05;100.00
55916;BME280;41826;53.246;-6.670;2023-07-09T05:13:15;100404.66;;;13.96;100.00
55916;BME280;41826;53.246;-6.670;2023-07-09T05:15:43;100423.09;;;14.04;100.00
55916;BME280;41826;53.246;-6.670;2023-07-09T05:18:10;100430.06;;;14.28;100.00
55916;BME280;41826;53.246;-6.670;2023-07-09T05:20:35;100436.00;;;14.62;100.00
55916;BME280;41826;53.246;-6.670;2023-07-09T05:23:01;100410.38;;;14.85;100.00
55916;BME280;41826;53.246;-6.670;2023-07-09T05:25:26;100357.94;;;15.27;100.00
55916;BME280;41826;53.246;-6.670;2023-07-09T05:27:52;100233.81;;;15.61;100.00
55916;BME280;41826;53.246;-6.670;2023-07-09T05:30:18;100070.91;;;15.74;100.00
55916;BME280;41826;53.246;-6.670;2023-07-09T05:32:44;99983.22;;;15.55;100.00
55916;BME280;41826;53.246;-6.670;2023-07-09T05:35:09;99949.03;;;15.26;100.00
55916;BME280;41826;53.246;-6.670;2023-07-09T05:37:36;99951.00;;;15.45;100.00
55916;BME280;41826;53.246;-6.670;2023-07-09T05:40:02;99891.56;;;15.41;100.00
55916;BME280;41826;53.246;-6.670;2023-07-09T05:42:29;99880.13;;;15.34;100.00
55916;BME280;41826;53.246;-6.670;2023-07-09T05:44:55;99875.88;;;15.33;100.00
55916;BME280;41826;53.246;-6.670;2023-07-09T05:47:20;99874.50;;;15.44;100.00
55916;BME280;41826;53.246;-6.670;2023-07-09T05:49:46;99870.63;;;15.39;100.00
55916;BME280;41826;53.246;-6.670;2023-07-09T05:52:14;99880.59;;;15.44;100.00
55916;BME280;41826;53.246;-6.670;2023-07-09T05:54:40;99861.91;;;15.46;100.00
55916;BME280;41826;53.246;-6.670;2023-07-09T05:57:06;99845.22;;;15.52;100.00
55916;BME280;41826;53.246;-6.670;2023-07-09T05:59:31;99781.59;;;15.67;100.00
55916;BME280;41826;53.246;-6.670;2023-07-09T06:01:56;99792.75;;;15.62;100.00
55916;BME280;41826;53.246;-6.670;2023-07-09T06:04:22;99771.31;;;15.85;100.00
55916;BME280;41826;53.246;-6.670;2023-07-09T06:06:47;99726.47;;;15.77;100.00
55916;BME280;41826;53.246;-6.670;2023-07-09T06:09:13;99697.59;;;15.82;100.00
55916;BME280;41826;53.246;-6.670;2023-07-09T06:11:41;99673.19;;;15.80;100.00
55916;BME280;41826;53.246;-6.670;2023-07-09T06:14:06;99655.84;;;15.71;100.00
55916;BME280;41826;53.246;-6.670;2023-07-09T06:16:32;99686.34;;;15.67;100.00
55916;BME280;41826;53.246;-6.670;2023-07-09T06:18:58;99678.47;;;15.80;100.00
55916;BME280;41826;53.246;-6.670;2023-07-09T06:21:23;99675.56;;;15.68;100.00
55916;BME280;41826;53.246;-6.670;2023-07-09T06:23:48;99695.94;;;15.74;100.00
55916;BME280;41826;53.246;-6.670;2023-07-09T06:26:14;99714.63;;;15.66;100.00
55916;BME280;41826;53.246;-6.670;2023-07-09T06:28:39;99735.44;;;15.76;100.00
55916;BME280;41826;53.246;-6.670;2023-07-09T06:31:04;99731.41;;;15.80;100.00
55916;BME280;41826;53.246;-6.670;2023-07-09T06:33:30;99691.47;;;15.81;100.00
55916;BME280;41826;53.246;-6.670;2023-07-09T06:35:58;99719.97;;;15.79;100.00
55916;BME280;41826;53.246;-6.670;2023-07-09T06:38:24;99684.56;;;15.94;100.00
55916;BME280;41826;53.246;-6.670;2023-07-09T06:40:50;99694.13;;;15.88;100.00
55916;BME280;41826;53.246;-6.670;2023-07-09T06:43:16;99712.88;;;15.93;100.00
55916;BME280;41826;53.246;-6.670;2023-07-09T06:45:55;99714.72;;;16.06;100.00
55916;BME280;41826;53.246;-6.670;2023-07-09T06:48:22;99688.22;;;16.26;100.00
55916;BME280;41826;53.246;-6.670;2023-07-09T06:50:48;99613.84;;;16.28;100.00
55916;BME280;41826;53.246;-6.670;2023-07-09T06:53:14;99561.13;;;16.19;100.00
55916;BME280;41826;53.246;-6.670;2023-07-09T06:55:39;99539.31;;;16.24;100.00
55916;BME280;41826;53.246;-6.670;2023-07-09T06:58:05;99469.75;;;16.49;100.00
55916;BME280;41826;53.246;-6.670;2023-07-09T07:00:31;99445.56;;;16.38;100.00
55916;BME280;41826;53.246;-6.670;2023-07-09T07:02:56;99438.34;;;16.52;100.00
55916;BME280;41826;53.246;-6.670;2023-07-09T07:05:22;99399.13;;;16.61;100.00
55916;BME280;41826;53.246;-6.670;2023-07-09T07:07:47;99394.69;;;16.55;100.00
55916;BME280;41826;53.246;-6.670;2023-07-09T07:10:12;99404.56;;;16.79;100.00
55916;BME280;41826;53.246;-6.670;2023-07-09T07:12:47;99360.88;;;16.57;100.00
55916;BME280;41826;53.246;-6.670;2023-07-09T07:15:14;99350.44;;;17.49;100.00
55916;BME280;41826;53.246;-6.670;2023-07-09T07:17:40;99209.28;;;17.89;100.00
55916;BME280;41826;53.246;-6.670;2023-07-09T07:20:07;99162.78;;;17.56;100.00
55916;BME280;41826;53.246;-6.670;2023-07-09T07:22:33;99095.94;;;18.13;100.00
55916;BME280;41826;53.246;-6.670;2023-07-09T07:24:58;99062.00;;;17.91;100.00
55916;BME280;41826;53.246;-6.670;2023-07-09T07:27:24;99048.34;;;17.76;100.00
55916;BME280;41826;53.246;-6.670;2023-07-09T07:29:49;99071.91;;;17.72;100.00
55916;BME280;41826;53.246;-6.670;2023-07-09T07:32:14;99057.84;;;17.84;100.00
55916;BME280;41826;53.246;-6.670;2023-07-09T07:34:40;99089.53;;;17.55;100.00
55916;BME280;41826;53.246;-6.670;2023-07-09T07:37:05;99110.88;;;17.60;100.00
55916;BME280;41826;53.246;-6.670;2023-07-09T07:39:31;99112.31;;;17.98;100.00
55916;BME280;41826;53.246;-6.670;2023-07-09T07:41:56;99047.50;;;18.34;100.00
55916;BME280;41826;53.246;-6.670;2023-07-09T07:44:22;98943.47;;;19.00;100.00
55916;BME280;41826;53.246;-6.670;2023-07-09T07:46:48;98862.06;;;18.99;100.00
55916;BME280;41826;53.246;-6.670;2023-07-09T07:49:14;98849.66;;;18.54;100.00
55916;BME280;41826;53.246;-6.670;2023-07-09T07:51:39;98836.44;;;18.59;100.00
55916;BME280;41826;53.246;-6.670;2023-07-09T07:54:05;98854.81;;;18.15;100.00
55916;BME280;41826;53.246;-6.670;2023-07-09T07:56:31;98861.88;;;18.09;100.00
55916;BME280;41826;53.246;-6.670;2023-07-09T07:58:57;98864.41;;;18.33;100.00
55916;BME280;41826;53.246;-6.670;2023-07-09T08:01:22;98872.22;;;18.23;100.00
55916;BME280;41826;53.246;-6.670;2023-07-09T08:03:47;98871.94;;;18.53;100.00
55916;BME280;41826;53.246;-6.670;2023-07-09T08:06:13;98856.56;;;18.55;100.00
55916;BME280;41826;53.246;-6.670;2023-07-09T08:08:38;98866.88;;;18.51;100.00
55916;BME280;41826;53.246;-6.670;2023-07-09T08:11:06;98863.81;;;18.59;100.00
55916;BME280;41826;53.246;-6.670;2023-07-09T08:13:36;98896.94;;;18.23;100.00
55916;BME280;41826;53.246;-6.670;2023-07-09T08:16:04;98963.44;;;17.88;100.00
55916;BME280;41826;53.246;-6.670;2023-07-09T08:18:30;98995.72;;;17.61;100.00
55916;BME280;41826;53.246;-6.670;2023-07-09T08:20:55;99136.25;;;17.26;100.00
55916;BME280;41826;53.246;-6.670;2023-07-09T08:23:20;99292.88;;;17.31;100.00
55916;BME280;41826;53.246;-6.670;2023-07-09T08:25:56;99338.41;;;17.46;100.00
55916;BME280;41826;53.246;-6.670;2023-07-09T08:28:21;99474.59;;;17.22;100.00
55916;BME280;41826;53.246;-6.670;2023-07-09T08:30:47;99604.28;;;17.30;100.00
55916;BME280;41826;53.246;-6.670;2023-07-09T08:33:12;99727.88;;;16.93;100.00
55916;BME280;41826;53.246;-6.670;2023-07-09T08:35:38;99784.72;;;17.03;100.00
55916;BME280;41826;53.246;-6.670;2023-07-09T08:38:04;99815.28;;;17.26;100.00
55916;BME280;41826;53.246;-6.670;2023-07-09T08:40:29;99651.22;;;17.61;100.00
55916;BME280;41826;53.246;-6.670;2023-07-09T08:43:02;99518.16;;;17.32;100.00
55916;BME280;41826;53.246;-6.670;2023-07-09T08:45:57;99591.31;;;16.70;100.00
55916;BME280;41826;53.246;-6.670;2023-07-09T08:48:30;99793.94;;;16.74;100.00
55916;BME280;41826;53.246;-6.670;2023-07-09T08:51:01;99899.16;;;16.74;100.00
55916;BME280;41826;53.246;-6.670;2023-07-09T08:53:36;99996.88;;;17.10;100.00
55916;BME280;41826;53.246;-6.670;2023-07-09T08:56:03;99873.56;;;17.52;100.00
55916;BME280;41826;53.246;-6.670;2023-07-09T08:58:30;99722.50;;;17.58;100.00
55916;BME280;41826;53.246;-6.670;2023-07-09T09:00:59;99504.69;;;17.77;100.00
55916;BME280;41826;53.246;-6.670;2023-07-09T09:03:30;99434.75;;;17.47;100.00
55916;BME280;41826;53.246;-6.670;2023-07-09T09:06:01;99419.41;;;16.49;100.00
55916;BME280;41826;53.246;-6.670;2023-07-09T09:11:18;99444.63;;;16.13;100.00
55916;BME280;41826;53.246;-6.670;2023-07-09T09:13:48;99592.91;;;15.59;100.00
55916;BME280;41826;53.246;-6.670;2023-07-09T09:16:38;99736.72;;;15.32;100.00
55916;BME280;41826;53.246;-6.670;2023-07-09T09:19:16;99806.06;;;15.27;100.00
55916;BME280;41826;53.246;-6.670;2023-07-09T09:21:43;99851.03;;;15.27;100.00
55916;BME280;41826;53.246;-6.670;2023-07-09T09:24:36;99759.75;;;16.26;100.00
55916;BME280;41826;53.246;-6.670;2023-07-09T09:27:03;99721.53;;;15.60;100.00
55916;BME280;41826;53.246;-6.670;2023-07-09T09:29:29;99796.97;;;15.91;100.00
55916;BME280;41826;53.246;-6.670;2023-07-09T09:31:56;99881.53;;;16.19;100.00
55916;BME280;41826;53.246;-6.670;2023-07-09T09:34:26;99958.69;;;16.71;100.00
55916;BME280;41826;53.246;-6.670;2023-07-09T09:36:53;99987.91;;;17.18;100.00
55916;BME280;41826;53.246;-6.670;2023-07-09T09:39:19;99984.63;;;17.29;100.00
55916;BME280;41826;53.246;-6.670;2023-07-09T09:41:45;100004.63;;;17.51;100.00
55916;BME280;41826;53.246;-6.670;2023-07-09T09:44:19;100009.91;;;17.91;100.00
55916;BME280;41826;53.246;-6.670;2023-07-09T09:46:45;99940.38;;;18.08;100.00
55916;BME280;41826;53.246;-6.670;2023-07-09T09:49:12;99965.25;;;18.20;100.00
55916;BME280;41826;53.246;-6.670;2023-07-09T09:51:40;100028.28;;;17.60;100.00
55916;BME280;41826;53.246;-6.670;2023-07-09T09:54:34;100107.09;;;18.12;100.00
55916;BME280;41826;53.246;-6.670;2023-07-09T09:56:59;100061.69;;;18.27;100.00
55916;BME280;41826;53.246;-6.670;2023-07-09T09:59:29;100052.59;;;18.48;100.00
55916;BME280;41826;53.246;-6.670;2023-07-09T10:01:58;100080.09;;;18.29;100.00
55916;BME280;41826;53.246;-6.670;2023-07-09T10:04:24;100110.63;;;18.58;100.00
55916;BME280;41826;53.246;-6.670;2023-07-09T10:06:54;100032.53;;;18.97;100.00
55916;BME280;41826;53.246;-6.670;2023-07-09T10:15:15;99792.88;;;18.05;100.00
55916;BME280;41826;53.246;-6.670;2023-07-09T10:17:57;99830.47;;;18.02;100.00
55916;BME280;41826;53.246;-6.670;2023-07-09T10:31:17;99797.28;;;18.68;100.00
55916;BME280;41826;53.246;-6.670;2023-07-09T10:36:44;99895.00;;;18.73;100.00
55916;BME280;41826;53.246;-6.670;2023-07-09T10:39:17;100017.75;;;18.76;100.00
55916;BME280;41826;53.246;-6.670;2023-07-09T10:41:46;99929.78;;;19.03;100.00
55916;BME280;41826;53.246;-6.670;2023-07-09T10:44:21;99744.63;;;18.58;100.00
55916;BME280;41826;53.246;-6.670;2023-07-09T10:46:53;99711.03;;;18.64;100.00
55916;BME280;41826;53.246;-6.670;2023-07-09T10:49:25;99651.66;;;18.70;100.00
55916;BME280;41826;53.246;-6.670;2023-07-09T10:52:03;99580.41;;;18.42;100.00
55916;BME280;41826;53.246;-6.670;2023-07-09T10:57:30;99596.53;;;18.96;100.00
55916;BME280;41826;53.246;-6.670;2023-07-09T10:59:56;99575.03;;;19.39;100.00
55916;BME280;41826;53.246;-6.670;2023-07-09T11:02:26;99563.94;;;19.42;100.00
55916;BME280;41826;53.246;-6.670;2023-07-09T11:05:02;99479.34;;;19.80;100.00
55916;BME280;41826;53.246;-6.670;2023-07-09T11:12:45;99164.06;;;19.98;100.00
55916;BME280;41826;53.246;-6.670;2023-07-09T11:15:25;99081.91;;;19.89;100.00
55916;BME280;41826;53.246;-6.670;2023-07-09T11:17:52;98993.81;;;20.13;100.00
55916;BME280;41826;53.246;-6.670;2023-07-09T11:23:20;98929.47;;;20.26;100.00
55916;BME280;41826;53.246;-6.670;2023-07-09T11:26:10;98934.13;;;20.14;100.00
55916;BME280;41826;53.246;-6.670;2023-07-09T11:28:38;98951.97;;;19.91;100.00
55916;BME280;41826;53.246;-6.670;2023-07-09T11:31:08;98963.00;;;20.22;100.00
55916;BME280;41826;53.246;-6.670;2023-07-09T11:33:43;98960.59;;;20.48;100.00
55916;BME280;41826;53.246;-6.670;2023-07-09T11:36:11;98964.63;;;20.72;100.00
55916;BME280;41826;53.246;-6.670;2023-07-09T11:38:40;98979.09;;;20.54;100.00
55916;BME280;41826;53.246;-6.670;2023-07-09T11:41:46;99000.34;;;20.49;100.00
55916;BME280;41826;53.246;-6.670;2023-07-09T11:44:44;99008.47;;;20.60;100.00
55916;BME280;41826;53.246;-6.670;2023-07-09T11:47:23;99051.06;;;20.10;100.00
55916;BME280;41826;53.246;-6.670;2023-07-09T11:50:29;99043.06;;;20.32;100.00
55916;BME280;41826;53.246;-6.670;2023-07-09T11:53:01;99031.59;;;20.54;100.00
55916;BME280;41826;53.246;-6.670;2023-07-09T11:55:39;99028.72;;;20.83;100.00
55916;BME280;41826;53.246;-6.670;2023-07-09T11:58:11;99027.31;;;21.02;100.00
55916;BME280;41826;53.246;-6.670;2023-07-09T12:00:42;99052.88;;;21.25;100.00
55916;BME280;41826;53.246;-6.670;2023-07-09T12:03:17;99076.34;;;21.50;100.00
55916;BME280;41826;53.246;-6.670;2023-07-09T12:05:51;99158.56;;;20.99;100.00
55916;BME280;41826;53.246;-6.670;2023-07-09T12:08:18;99156.84;;;21.15;100.00
55916;BME280;41826;53.246;-6.670;2023-07-09T12:10:48;99189.50;;;21.00;100.00
55916;BME280;41826;53.246;-6.670;2023-07-09T12:13:13;99197.50;;;20.56;100.00
55916;BME280;41826;53.246;-6.670;2023-07-09T12:15:39;99194.81;;;20.56;100.00
55916;BME280;41826;53.246;-6.670;2023-07-09T12:18:13;99175.78;;;20.69;100.00
55916;BME280;41826;53.246;-6.670;2023-07-09T12:20:40;99200.16;;;20.56;100.00
55916;BME280;41826;53.246;-6.670;2023-07-09T12:23:22;99210.59;;;20.46;100.00
55916;BME280;41826;53.246;-6.670;2023-07-09T12:25:49;99195.44;;;20.63;100.00
55916;BME280;41826;53.246;-6.670;2023-07-09T12:28:16;99190.00;;;20.97;100.00
55916;BME280;41826;53.246;-6.670;2023-07-09T12:30:49;99205.19;;;21.18;100.00
55916;BME280;41826;53.246;-6.670;2023-07-09T12:33:17;99218.28;;;21.42;100.00
55916;BME280;41826;53.246;-6.670;2023-07-09T12:35:43;99248.38;;;21.37;100.00
55916;BME280;41826;53.246;-6.670;2023-07-09T12:38:17;99281.88;;;21.45;100.00
55916;BME280;41826;53.246;-6.670;2023-07-09T12:40:44;99291.78;;;21.28;100.00
55916;BME280;41826;53.246;-6.670;2023-07-09T12:43:11;99283.06;;;21.15;100.00
55916;BME280;41826;53.246;-6.670;2023-07-09T12:45:36;99295.91;;;21.18;100.00
55916;BME280;41826;53.246;-6.670;2023-07-09T12:48:02;99276.91;;;21.37;100.00
55916;BME280;41826;53.246;-6.670;2023-07-09T12:50:32;99277.03;;;21.69;100.00
55916;BME280;41826;53.246;-6.670;2023-07-09T12:53:08;99343.88;;;21.74;100.00
55916;BME280;41826;53.246;-6.670;2023-07-09T12:55:41;99360.06;;;21.90;100.00
55916;BME280;41826;53.246;-6.670;2023-07-09T12:58:13;99401.09;;;22.00;100.00
55916;BME280;41826;53.246;-6.670;2023-07-09T13:00:50;99465.38;;;21.72;100.00
55916;BME280;41826;53.246;-6.670;2023-07-09T13:03:26;99429.81;;;21.88;100.00
55916;BME280;41826;53.246;-6.670;2023-07-09T13:05:59;99401.78;;;22.18;100.00
55916;BME280;41826;53.246;-6.670;2023-07-09T13:08:28;99303.34;;;22.69;100.00
55916;BME280;41826;53.246;-6.670;2023-07-09T13:10:55;99472.56;;;21.88;100.00
55916;BME280;41826;53.246;-6.670;2023-07-09T13:13:22;99443.81;;;21.95;100.00
55916;BME280;41826;53.246;-6.670;2023-07-09T13:18:23;99535.47;;;21.96;100.00
55916;BME280;41826;53.246;-6.670;2023-07-09T13:20:49;99546.25;;;21.84;100.00